createdAt,value
2019-04-28T00:00:08.725Z,15.63
2019-04-28T00:04:11.527Z,22.17
2019-04-28T00:08:10.856Z,21.47
2019-04-28T00:12:11.530Z,21.63
2019-04-28T00:16:11.561Z,20.80
2019-04-28T00:20:12.803Z,25.43
2019-04-28T00:24:34.810Z,19.43
2019-04-28T00:28:36.247Z,22.50
2019-04-28T00:32:34.900Z,17.60
2019-04-28T00:36:35.608Z,24.97
2019-04-28T00:40:34.584Z,23.60
2019-04-28T00:44:33.498Z,16.60
2019-04-28T00:48:32.298Z,22.70
2019-04-28T00:52:32.011Z,19.47
2019-04-28T00:56:31.789Z,27.70
2019-04-28T01:00:41.523Z,21.73
2019-04-28T01:04:41.296Z,25.90
2019-04-28T01:08:41.856Z,15.57
2019-04-28T01:12:55.987Z,18.53
2019-04-28T01:17:09.770Z,17.10
2019-04-28T01:21:11.183Z,13.30
2019-04-28T01:25:16.986Z,16.83
2019-04-28T01:29:20.473Z,14.07
2019-04-28T01:33:37.854Z,20.43
2019-04-28T01:37:40.742Z,16.07
2019-04-28T01:41:42.154Z,20.87
2019-04-28T01:45:41.643Z,16.80
2019-04-28T01:49:40.716Z,21.00
2019-04-28T01:53:39.654Z,14.83
2019-04-28T01:57:40.010Z,20.53
2019-04-28T02:01:39.994Z,15.53
2019-04-28T02:05:40.439Z,17.87
2019-04-28T02:09:39.587Z,23.63
2019-04-28T02:13:40.269Z,15.53
2019-04-28T02:17:40.141Z,15.37
2019-04-28T02:21:46.670Z,14.53
2019-04-28T02:25:50.473Z,37.27
2019-04-28T02:29:49.896Z,18.80
2019-04-28T02:33:53.918Z,25.67
2019-04-28T02:37:54.885Z,31.37
2019-04-28T02:41:53.633Z,24.10
2019-04-28T02:45:53.417Z,18.50
2019-04-28T02:49:53.934Z,28.70
2019-04-28T02:53:57.377Z,21.43
2019-04-28T02:57:55.941Z,15.57
2019-04-28T03:01:54.492Z,16.13
2019-04-28T03:05:53.867Z,28.30
2019-04-28T03:09:52.527Z,26.57
2019-04-28T03:13:52.702Z,15.20
2019-04-28T03:17:53.348Z,19.30
2019-04-28T03:21:56.213Z,16.50
2019-04-28T03:26:10.971Z,17.03
2019-04-28T03:30:13.321Z,23.60
2019-04-28T03:34:13.155Z,17.37
2019-04-28T03:38:11.937Z,13.20
2019-04-28T03:42:11.706Z,14.63
2019-04-28T03:46:14.915Z,13.73
2019-04-28T03:50:15.198Z,17.30
2019-04-28T03:54:16.122Z,18.37
2019-04-28T03:58:15.220Z,23.40
2019-04-28T04:02:23.111Z,19.47
2019-04-28T04:06:22.344Z,20.70
2019-04-28T04:10:41.488Z,20.07
2019-04-28T04:14:50.827Z,22.47
2019-04-28T04:18:56.254Z,12.90
2019-04-28T04:22:55.394Z,17.13
2019-04-28T04:26:57.348Z,19.37
2019-04-28T04:31:00.507Z,19.73
2019-04-28T04:35:00.729Z,20.03
2019-04-28T04:39:02.285Z,24.37
2019-04-28T04:43:01.785Z,18.00
2019-04-28T04:47:02.801Z,25.80
2019-04-28T04:51:04.924Z,13.30
2019-04-28T04:55:05.897Z,20.97
2019-04-28T04:59:06.581Z,17.30
2019-04-28T05:03:21.095Z,20.07
2019-04-28T05:07:19.738Z,16.87
2019-04-28T05:11:21.406Z,17.47
2019-04-28T05:15:26.825Z,19.80
2019-04-28T05:19:26.948Z,20.13
2019-04-28T05:23:40.022Z,15.93
2019-04-28T05:27:43.646Z,19.63
2019-04-28T05:31:46.039Z,15.50
2019-04-28T05:35:44.043Z,22.33
2019-04-28T05:39:42.654Z,17.10
2019-04-28T05:43:43.115Z,18.87
2019-04-28T05:47:41.710Z,20.10
2019-04-28T05:51:52.551Z,19.40
2019-04-28T05:55:52.765Z,21.13
2019-04-28T06:00:01.119Z,20.23
2019-04-28T06:04:00.917Z,16.80
2019-04-28T06:08:21.082Z,17.77
2019-04-28T06:12:20.781Z,17.83
2019-04-28T06:16:30.486Z,25.30
2019-04-28T06:20:30.308Z,15.43
2019-04-28T06:24:30.269Z,10.60
2019-04-28T06:28:34.145Z,15.63
2019-04-28T06:32:32.350Z,16.17
2019-04-28T06:36:34.505Z,20.00
2019-04-28T06:40:33.234Z,22.67
2019-04-28T06:44:31.931Z,11.33
2019-04-28T06:48:35.521Z,17.97
2019-04-28T06:52:33.797Z,14.87
2019-04-28T06:56:32.376Z,15.10
2019-04-28T07:00:32.652Z,14.60
2019-04-28T07:04:33.455Z,16.13
2019-04-28T07:08:34.947Z,10.90
2019-04-28T07:12:39.184Z,10.40
2019-04-28T07:16:41.339Z,16.50
2019-04-28T07:20:50.270Z,16.80
2019-04-28T07:24:48.847Z,16.57
2019-04-28T07:28:47.927Z,17.57
2019-04-28T07:32:46.427Z,16.97
2019-04-28T07:36:48.172Z,20.57
2019-04-28T07:40:46.778Z,15.33
2019-04-28T07:44:52.376Z,15.33
2019-04-28T07:48:53.078Z,10.87
2019-04-28T07:52:56.063Z,18.23
2019-04-28T07:56:57.845Z,13.10
2019-04-28T08:00:57.101Z,21.67
2019-04-28T08:09:19.077Z,18.30
2019-04-28T08:13:17.668Z,14.50
2019-04-28T08:17:19.261Z,15.43
2019-04-28T08:21:18.102Z,13.73
2019-04-28T08:25:17.278Z,14.97
2019-04-28T08:29:28.358Z,12.87
2019-04-28T08:34:02.658Z,14.20
2019-04-28T08:38:05.940Z,12.77
2019-04-28T08:42:05.049Z,18.10
2019-04-28T08:46:03.689Z,13.27
2019-04-28T08:50:07.553Z,8.30
2019-04-28T08:54:06.594Z,13.77
2019-04-28T08:58:05.495Z,9.87
2019-04-28T09:02:04.326Z,14.00
2019-04-28T09:06:03.550Z,15.97
2019-04-28T09:10:02.905Z,14.67
2019-04-28T09:14:11.578Z,12.13
2019-04-28T09:18:17.891Z,13.90
2019-04-28T09:22:22.295Z,14.83
2019-04-28T09:26:20.826Z,11.93
2019-04-28T09:30:19.578Z,12.97
2019-04-28T09:34:28.527Z,11.97
2019-04-28T09:38:27.552Z,13.53
2019-04-28T09:42:31.228Z,10.30
2019-04-28T09:46:31.440Z,13.87
2019-04-28T09:50:30.315Z,12.30
2019-04-28T09:54:36.592Z,10.37
2019-04-28T09:58:35.205Z,10.53
2019-04-28T10:02:42.515Z,5.00
2019-04-28T10:06:42.650Z,11.57
2019-04-28T10:10:50.099Z,12.30
2019-04-28T10:14:48.997Z,11.03
2019-04-28T10:18:47.911Z,9.77
2019-04-28T10:22:46.732Z,11.90
2019-04-28T10:26:50.148Z,8.53
2019-04-28T10:30:49.416Z,8.77
2019-04-28T10:34:55.016Z,11.73
2019-04-28T10:38:57.424Z,13.30
2019-04-28T10:42:55.966Z,10.20
2019-04-28T10:47:08.405Z,8.93
2019-04-28T10:51:08.906Z,8.63
2019-04-28T10:55:09.340Z,10.87
2019-04-28T10:59:20.246Z,8.60
2019-04-28T11:03:32.054Z,6.80
2019-04-28T11:07:30.483Z,6.03
2019-04-28T11:11:38.704Z,8.00
2019-04-28T11:15:38.126Z,9.13
2019-04-28T11:19:40.520Z,10.70
2019-04-28T11:23:39.101Z,4.53
2019-04-28T11:27:42.542Z,4.07
2019-04-28T11:31:45.041Z,9.70
2019-04-28T11:35:45.640Z,6.17
2019-04-28T11:39:44.204Z,11.43
2019-04-28T11:43:44.396Z,6.90
2019-04-28T11:47:42.975Z,9.23
2019-04-28T11:51:41.540Z,5.57
2019-04-28T11:55:40.136Z,4.33
2019-04-28T11:59:38.701Z,3.20
2019-04-28T12:03:37.922Z,6.73
2019-04-28T12:07:36.443Z,6.07
2019-04-28T12:11:38.332Z,3.93
2019-04-28T12:15:40.664Z,4.00
2019-04-28T12:19:50.524Z,2.40
2019-04-28T12:23:49.087Z,2.10
2019-04-28T12:27:47.669Z,4.30
2019-04-28T12:31:49.501Z,4.23
2019-04-28T12:35:48.367Z,2.73
2019-04-28T12:39:59.173Z,3.97
2019-04-28T12:43:58.360Z,2.93
2019-04-28T12:47:57.151Z,3.83
2019-04-28T12:51:57.544Z,3.30
2019-04-28T12:56:04.470Z,2.60
2019-04-28T13:00:13.883Z,2.13
2019-04-28T13:04:19.714Z,4.87
2019-04-28T13:08:19.820Z,4.10
2019-04-28T13:12:18.394Z,6.37
2019-04-28T13:16:17.721Z,4.97
2019-04-28T13:20:16.844Z,3.37
2019-04-28T13:24:18.159Z,5.20
2019-04-28T13:28:17.839Z,8.77
2019-04-28T13:32:16.805Z,4.03
2019-04-28T13:36:15.518Z,3.30
2019-04-28T13:40:19.217Z,3.30
2019-04-28T13:44:19.499Z,1.97
2019-04-28T13:48:25.093Z,2.23
2019-04-28T13:52:34.617Z,2.50
2019-04-28T13:56:33.995Z,2.50
2019-04-28T14:00:57.328Z,1.10
2019-04-28T14:04:59.816Z,4.10
2019-04-28T14:08:58.535Z,5.03
2019-04-28T14:12:57.300Z,3.17
2019-04-28T14:16:56.270Z,1.93
2019-04-28T14:20:54.873Z,2.27
2019-04-28T14:24:53.425Z,1.57
2019-04-28T14:28:56.101Z,3.53
2019-04-28T14:32:54.865Z,3.93
2019-04-28T14:36:57.140Z,5.57
2019-04-28T14:40:55.669Z,2.40
2019-04-28T14:44:54.422Z,4.80
2019-04-28T14:48:56.173Z,3.60
2019-04-28T14:52:58.854Z,3.03
2019-04-28T14:56:56.897Z,4.30
2019-04-28T15:01:06.485Z,6.23
2019-04-28T15:05:13.433Z,6.47
2019-04-28T15:09:32.906Z,1.93
2019-04-28T15:13:32.007Z,4.03
2019-04-28T15:17:31.693Z,1.50
2019-04-28T15:21:38.654Z,3.40
2019-04-28T15:25:37.198Z,4.10
2019-04-28T15:29:39.457Z,7.50
2019-04-28T15:33:38.096Z,3.90
2019-04-28T15:37:41.525Z,2.73
2019-04-28T15:41:45.030Z,2.97
2019-04-28T15:45:44.034Z,3.70
2019-04-28T15:49:50.074Z,5.60
2019-04-28T15:53:58.579Z,4.93
2019-04-28T15:58:03.691Z,1.40
2019-04-28T16:02:05.548Z,5.03
2019-04-28T16:06:04.697Z,6.80
2019-04-28T16:10:05.518Z,3.97
2019-04-28T16:14:04.537Z,3.40
2019-04-28T16:18:03.197Z,3.10
2019-04-28T16:22:04.381Z,3.37
2019-04-28T16:26:02.956Z,5.23
2019-04-28T16:30:06.085Z,4.97
2019-04-28T16:34:05.252Z,5.53
2019-04-28T16:38:06.221Z,5.10
2019-04-28T16:42:18.181Z,3.20
2019-04-28T16:46:21.204Z,4.10
2019-04-28T16:50:21.581Z,3.17
2019-04-28T16:54:24.893Z,3.20
2019-04-28T16:58:30.965Z,3.40
2019-04-28T17:02:34.541Z,2.63
2019-04-28T17:06:34.143Z,3.50
2019-04-28T17:10:32.983Z,3.83
2019-04-28T17:14:34.603Z,2.43
2019-04-28T17:18:33.216Z,5.13
2019-04-28T17:22:38.748Z,2.40
2019-04-28T17:26:41.955Z,1.60
2019-04-28T17:30:40.515Z,2.23
2019-04-28T17:34:52.295Z,3.60
2019-04-28T17:38:50.647Z,2.07
2019-04-28T17:42:49.831Z,2.27
2019-04-28T17:46:48.881Z,1.50
2019-04-28T17:50:52.101Z,2.80
2019-04-28T17:54:52.384Z,6.60
2019-04-28T17:58:50.980Z,4.13
2019-04-28T18:03:01.619Z,4.90
2019-04-28T18:07:12.713Z,6.90
2019-04-28T18:11:12.316Z,3.13
2019-04-28T18:15:18.889Z,4.53
2019-04-28T18:19:20.726Z,5.03
2019-04-28T18:23:22.552Z,1.90
2019-04-28T18:27:22.585Z,4.00
2019-04-28T18:31:39.300Z,5.97
2019-04-28T18:35:50.302Z,4.40
2019-04-28T18:40:07.105Z,2.50
2019-04-28T18:44:10.901Z,3.90
2019-04-28T18:48:10.891Z,4.63
2019-04-28T18:52:18.171Z,6.83
2019-04-28T18:56:17.154Z,7.37
2019-04-28T19:00:21.712Z,4.80
2019-04-28T19:04:28.102Z,7.20
2019-04-28T19:08:49.380Z,7.63
2019-04-28T19:13:02.566Z,8.30
2019-04-28T19:17:07.797Z,8.10
2019-04-28T19:21:08.582Z,10.30
2019-04-28T19:25:11.076Z,6.57
2019-04-28T19:29:09.886Z,5.90
2019-04-28T19:37:38.137Z,8.67
2019-04-28T19:41:36.978Z,7.23
2019-04-28T19:45:38.293Z,4.40
2019-04-28T19:49:36.849Z,6.13
2019-04-28T19:53:35.753Z,3.30
2019-04-28T19:57:49.780Z,8.60
2019-04-28T20:01:52.578Z,6.10
2019-04-28T20:06:13.452Z,4.17
2019-04-28T20:10:13.922Z,2.93
2019-04-28T20:14:15.191Z,6.73
2019-04-28T20:18:17.815Z,4.23
2019-04-28T20:22:17.887Z,6.97
2019-04-28T20:26:41.715Z,5.97
2019-04-28T20:30:32.042Z,5.27
2019-04-28T20:34:34.906Z,4.63
2019-04-28T20:38:35.806Z,5.37
2019-04-28T20:42:51.373Z,3.23
2019-04-28T20:46:49.916Z,4.47
2019-04-28T20:50:48.511Z,4.40
2019-04-28T20:54:55.289Z,4.93
2019-04-28T20:58:56.177Z,5.40
2019-04-28T21:03:08.742Z,6.83
2019-04-28T21:07:08.314Z,9.67
2019-04-28T21:11:14.206Z,10.00
2019-04-28T21:15:08.996Z,7.47
2019-04-28T21:19:11.593Z,8.10
2019-04-28T21:23:17.131Z,7.53
2019-04-28T21:27:15.343Z,6.33
2019-04-28T21:31:17.235Z,5.90
2019-04-28T21:35:19.380Z,4.27
2019-04-28T21:39:18.486Z,3.83
2019-04-28T21:43:32.343Z,5.87
2019-04-28T21:47:35.211Z,5.53
2019-04-28T21:51:35.314Z,3.53
2019-04-28T21:55:46.742Z,4.43
2019-04-28T21:59:45.303Z,6.70
2019-04-28T22:03:48.069Z,3.70
2019-04-28T22:07:46.825Z,6.00
2019-04-28T22:11:49.610Z,7.97
2019-04-28T22:15:47.624Z,7.13
2019-04-28T22:19:46.203Z,9.70
2019-04-28T22:24:01.623Z,7.23
2019-04-28T22:28:00.909Z,8.43
2019-04-28T22:32:06.823Z,7.43
2019-04-28T22:36:11.810Z,4.37
2019-04-28T22:40:10.940Z,7.07
2019-04-28T22:44:15.189Z,5.00
2019-04-28T22:48:15.957Z,6.60
2019-04-28T22:52:14.565Z,5.03
2019-04-28T22:56:26.712Z,5.10
2019-04-28T23:00:37.388Z,4.97
2019-04-28T23:04:45.205Z,6.27
2019-04-28T23:08:43.830Z,6.37
2019-04-28T23:12:42.653Z,6.57
2019-04-28T23:16:43.739Z,3.77
2019-04-28T23:20:44.059Z,6.37
2019-04-28T23:24:42.802Z,6.33
2019-04-28T23:28:41.881Z,5.47
2019-04-28T23:32:42.755Z,6.23
2019-04-28T23:36:44.303Z,5.13
2019-04-28T23:40:47.190Z,4.63
2019-04-28T23:44:48.114Z,5.30
2019-04-28T23:48:46.750Z,7.13
2019-04-28T23:52:47.040Z,6.00
2019-04-28T23:56:47.406Z,4.40
